sensor_id;sensor_type;location;lat;lon;timestamp;temperature;humidity
25933;DHT22;13731;51.166;4.474;2024-03-02T00:02:13;6.30;99.90
25933;DHT22;13731;51.166;4.474;2024-03-02T00:04:39;6.30;99.90
25933;DHT22;13731;51.166;4.474;2024-03-02T00:07:06;6.30;99.90
25933;DHT22;13731;51.166;4.474;2024-03-02T00:09:32;6.30;99.90
25933;DHT22;13731;51.166;4.474;2024-03-02T00:11:58;6.30;99.90
25933;DHT22;13731;51.166;4.474;2024-03-02T00:14:25;6.30;99.90
25933;DHT22;13731;51.166;4.474;2024-03-02T00:16:51;6.30;99.90
25933;DHT22;13731;51.166;4.474;2024-03-02T00:19:17;6.30;99.90
25933;DHT22;13731;51.166;4.474;2024-03-02T00:21:42;6.30;99.90
25933;DHT22;13731;51.166;4.474;2024-03-02T00:24:17;6.20;99.90
25933;DHT22;13731;51.166;4.474;2024-03-02T00:26:45;6.20;99.90
25933;DHT22;13731;51.166;4.474;2024-03-02T00:29:11;6.20;99.90
25933;DHT22;13731;51.166;4.474;2024-03-02T00:31:39;6.20;99.90
25933;DHT22;13731;51.166;4.474;2024-03-02T00:34:05;6.20;99.90
25933;DHT22;13731;51.166;4.474;2024-03-02T00:36:31;6.20;99.90
25933;DHT22;13731;51.166;4.474;2024-03-02T00:38:57;6.20;99.90
25933;DHT22;13731;51.166;4.474;2024-03-02T00:46:23;6.10;99.90
25933;DHT22;13731;51.166;4.474;2024-03-02T00:48:53;6.10;99.90
25933;DHT22;13731;51.166;4.474;2024-03-02T00:51:23;6.20;99.90
25933;DHT22;13731;51.166;4.474;2024-03-02T00:53:49;6.20;99.90
25933;DHT22;13731;51.166;4.474;2024-03-02T00:56:16;6.20;99.90
25933;DHT22;13731;51.166;4.474;2024-03-02T00:58:42;6.20;99.90
25933;DHT22;13731;51.166;4.474;2024-03-02T01:01:07;6.20;99.90
25933;DHT22;13731;51.166;4.474;2024-03-02T01:03:33;6.20;99.90
25933;DHT22;13731;51.166;4.474;2024-03-02T01:05:59;6.20;99.90
25933;DHT22;13731;51.166;4.474;2024-03-02T01:08:25;6.20;99.90
25933;DHT22;13731;51.166;4.474;2024-03-02T01:10:51;6.20;99.90
25933;DHT22;13731;51.166;4.474;2024-03-02T01:13:17;6.20;99.90
25933;DHT22;13731;51.166;4.474;2024-03-02T01:15:43;6.20;99.90
25933;DHT22;13731;51.166;4.474;2024-03-02T01:18:09;6.20;99.90
25933;DHT22;13731;51.166;4.474;2024-03-02T01:20:35;6.20;99.90
25933;DHT22;13731;51.166;4.474;2024-03-02T01:23:00;6.20;99.90
25933;DHT22;13731;51.166;4.474;2024-03-02T01:25:26;6.10;99.90
25933;DHT22;13731;51.166;4.474;2024-03-02T01:27:52;6.10;99.90
25933;DHT22;13731;51.166;4.474;2024-03-02T01:30:17;6.10;99.90
25933;DHT22;13731;51.166;4.474;2024-03-02T01:32:43;6.10;99.90
25933;DHT22;13731;51.166;4.474;2024-03-02T01:35:09;6.20;99.90
25933;DHT22;13731;51.166;4.474;2024-03-02T01:37:34;6.20;99.90
25933;DHT22;13731;51.166;4.474;2024-03-02T01:40:00;6.20;99.90
25933;DHT22;13731;51.166;4.474;2024-03-02T01:42:26;6.20;99.90
25933;DHT22;13731;51.166;4.474;2024-03-02T01:44:52;6.20;99.90
25933;DHT22;13731;51.166;4.474;2024-03-02T01:47:17;6.20;99.90
25933;DHT22;13731;51.166;4.474;2024-03-02T01:49:43;6.20;99.90
25933;DHT22;13731;51.166;4.474;2024-03-02T01:52:09;6.20;99.90
25933;DHT22;13731;51.166;4.474;2024-03-02T01:54:34;6.20;99.90
25933;DHT22;13731;51.166;4.474;2024-03-02T01:57:00;6.20;99.90
25933;DHT22;13731;51.166;4.474;2024-03-02T01:59:26;6.30;99.90
25933;DHT22;13731;51.166;4.474;2024-03-02T02:01:52;6.30;99.90
25933;DHT22;13731;51.166;4.474;2024-03-02T02:04:18;6.30;99.90
25933;DHT22;13731;51.166;4.474;2024-03-02T02:06:46;6.30;99.90
25933;DHT22;13731;51.166;4.474;2024-03-02T02:09:12;6.30;99.90
25933;DHT22;13731;51.166;4.474;2024-03-02T02:11:38;6.30;99.90
25933;DHT22;13731;51.166;4.474;2024-03-02T02:14:03;6.30;99.90
25933;DHT22;13731;51.166;4.474;2024-03-02T02:16:29;6.30;99.90
25933;DHT22;13731;51.166;4.474;2024-03-02T02:18:55;6.40;99.90
25933;DHT22;13731;51.166;4.474;2024-03-02T02:21:24;6.40;99.90
25933;DHT22;13731;51.166;4.474;2024-03-02T02:23:49;6.40;99.90
25933;DHT22;13731;51.166;4.474;2024-03-02T02:26:15;6.40;99.90
25933;DHT22;13731;51.166;4.474;2024-03-02T02:28:41;6.40;99.90
25933;DHT22;13731;51.166;4.474;2024-03-02T02:31:12;6.50;99.90
25933;DHT22;13731;51.166;4.474;2024-03-02T02:33:41;6.50;99.90
25933;DHT22;13731;51.166;4.474;2024-03-02T02:36:07;6.50;99.90
25933;DHT22;13731;51.166;4.474;2024-03-02T02:38:33;6.50;99.90
25933;DHT22;13731;51.166;4.474;2024-03-02T02:41:02;6.40;99.90
25933;DHT22;13731;51.166;4.474;2024-03-02T02:43:27;6.40;99.90
25933;DHT22;13731;51.166;4.474;2024-03-02T02:45:53;6.40;99.90
25933;DHT22;13731;51.166;4.474;2024-03-02T02:48:19;6.50;99.90
25933;DHT22;13731;51.166;4.474;2024-03-02T02:50:44;6.50;99.90
25933;DHT22;13731;51.166;4.474;2024-03-02T02:53:10;6.50;99.90
25933;DHT22;13731;51.166;4.474;2024-03-02T02:55:36;6.50;99.90
25933;DHT22;13731;51.166;4.474;2024-03-02T02:58:06;6.50;99.90
25933;DHT22;13731;51.166;4.474;2024-03-02T03:00:32;6.50;99.90
25933;DHT22;13731;51.166;4.474;2024-03-02T03:02:58;6.50;99.90
25933;DHT22;13731;51.166;4.474;2024-03-02T03:05:23;6.50;99.90
25933;DHT22;13731;51.166;4.474;2024-03-02T03:07:49;6.50;99.90
25933;DHT22;13731;51.166;4.474;2024-03-02T03:10:15;6.50;99.90
25933;DHT22;13731;51.166;4.474;2024-03-02T03:12:41;6.50;99.90
25933;DHT22;13731;51.166;4.474;2024-03-02T03:15:11;6.50;99.90
25933;DHT22;13731;51.166;4.474;2024-03-02T03:17:37;6.60;99.90
25933;DHT22;13731;51.166;4.474;2024-03-02T03:20:03;6.60;99.90
25933;DHT22;13731;51.166;4.474;2024-03-02T03:22:30;6.60;99.90
25933;DHT22;13731;51.166;4.474;2024-03-02T03:24:56;6.60;99.90
25933;DHT22;13731;51.166;4.474;2024-03-02T03:27:22;6.60;99.90
25933;DHT22;13731;51.166;4.474;2024-03-02T03:29:48;6.60;99.90
25933;DHT22;13731;51.166;4.474;2024-03-02T03:32:13;6.60;99.90
25933;DHT22;13731;51.166;4.474;2024-03-02T03:34:39;6.60;99.90
25933;DHT22;13731;51.166;4.474;2024-03-02T03:37:06;6.50;99.90
25933;DHT22;13731;51.166;4.474;2024-03-02T03:39:31;6.50;99.90
25933;DHT22;13731;51.166;4.474;2024-03-02T03:41:59;6.50;99.90
25933;DHT22;13731;51.166;4.474;2024-03-02T03:44:24;6.50;99.90
25933;DHT22;13731;51.166;4.474;2024-03-02T03:46:50;6.60;99.90
25933;DHT22;13731;51.166;4.474;2024-03-02T03:49:16;6.60;99.90
25933;DHT22;13731;51.166;4.474;2024-03-02T03:51:42;6.50;99.90
25933;DHT22;13731;51.166;4.474;2024-03-02T03:54:08;6.50;99.90
25933;DHT22;13731;51.166;4.474;2024-03-02T03:56:36;6.40;99.90
25933;DHT22;13731;51.166;4.474;2024-03-02T03:59:02;6.30;99.90
25933;DHT22;13731;51.166;4.474;2024-03-02T04:01:28;6.20;99.90
25933;DHT22;13731;51.166;4.474;2024-03-02T04:03:53;6.10;99.90
25933;DHT22;13731;51.166;4.474;2024-03-02T04:06:19;6.00;99.90
25933;DHT22;13731;51.166;4.474;2024-03-02T04:08:45;6.00;99.90
25933;DHT22;13731;51.166;4.474;2024-03-02T04:11:10;6.00;99.90
25933;DHT22;13731;51.166;4.474;2024-03-02T04:13:36;6.00;99.90
25933;DHT22;13731;51.166;4.474;2024-03-02T04:16:02;6.00;99.90
25933;DHT22;13731;51.166;4.474;2024-03-02T04:18:29;6.00;99.90
25933;DHT22;13731;51.166;4.474;2024-03-02T04:20:54;6.00;99.90
25933;DHT22;13731;51.166;4.474;2024-03-02T04:23:20;6.00;99.90
25933;DHT22;13731;51.166;4.474;2024-03-02T04:25:46;6.00;99.90
25933;DHT22;13731;51.166;4.474;2024-03-02T04:28:11;6.10;99.90
25933;DHT22;13731;51.166;4.474;2024-03-02T04:30:38;6.00;99.90
25933;DHT22;13731;51.166;4.474;2024-03-02T04:33:04;6.00;99.90
25933;DHT22;13731;51.166;4.474;2024-03-02T04:35:31;5.90;99.90
25933;DHT22;13731;51.166;4.474;2024-03-02T04:37:56;5.90;99.90
25933;DHT22;13731;51.166;4.474;2024-03-02T04:40:22;5.80;99.90
25933;DHT22;13731;51.166;4.474;2024-03-02T04:42:48;5.80;99.90
25933;DHT22;13731;51.166;4.474;2024-03-02T04:45:13;5.80;99.90
25933;DHT22;13731;51.166;4.474;2024-03-02T04:47:39;5.70;99.90
25933;DHT22;13731;51.166;4.474;2024-03-02T04:50:05;5.70;99.90
25933;DHT22;13731;51.166;4.474;2024-03-02T04:52:31;5.70;99.90
25933;DHT22;13731;51.166;4.474;2024-03-02T04:54:57;5.80;99.90
25933;DHT22;13731;51.166;4.474;2024-03-02T04:57:35;5.80;99.90
25933;DHT22;13731;51.166;4.474;2024-03-02T05:00:01;5.80;99.90
25933;DHT22;13731;51.166;4.474;2024-03-02T05:02:27;5.90;99.90
25933;DHT22;13731;51.166;4.474;2024-03-02T05:04:53;5.90;99.90
25933;DHT22;13731;51.166;4.474;2024-03-02T05:07:18;5.80;99.90
25933;DHT22;13731;51.166;4.474;2024-03-02T05:09:44;5.80;99.90
25933;DHT22;13731;51.166;4.474;2024-03-02T05:12:10;5.70;99.90
25933;DHT22;13731;51.166;4.474;2024-03-02T05:14:55;5.70;99.90
25933;DHT22;13731;51.166;4.474;2024-03-02T05:17:21;5.70;99.90
25933;DHT22;13731;51.166;4.474;2024-03-02T05:19:46;5.60;99.90
25933;DHT22;13731;51.166;4.474;2024-03-02T05:22:12;5.50;99.90
25933;DHT22;13731;51.166;4.474;2024-03-02T05:24:38;5.40;99.90
25933;DHT22;13731;51.166;4.474;2024-03-02T05:27:03;5.50;99.90
25933;DHT22;13731;51.166;4.474;2024-03-02T05:29:29;5.40;99.90
25933;DHT22;13731;51.166;4.474;2024-03-02T05:31:55;5.30;99.90
25933;DHT22;13731;51.166;4.474;2024-03-02T05:34:21;5.30;99.90
25933;DHT22;13731;51.166;4.474;2024-03-02T05:36:46;5.20;99.90
25933;DHT22;13731;51.166;4.474;2024-03-02T05:39:12;5.20;99.90
25933;DHT22;13731;51.166;4.474;2024-03-02T05:41:38;5.20;99.90
25933;DHT22;13731;51.166;4.474;2024-03-02T05:44:04;5.20;99.90
25933;DHT22;13731;51.166;4.474;2024-03-02T05:46:29;5.10;99.90
25933;DHT22;13731;51.166;4.474;2024-03-02T05:48:55;5.00;99.90
25933;DHT22;13731;51.166;4.474;2024-03-02T05:51:21;5.10;99.90
25933;DHT22;13731;51.166;4.474;2024-03-02T05:53:47;5.00;99.90
25933;DHT22;13731;51.166;4.474;2024-03-02T05:56:13;5.00;99.90
25933;DHT22;13731;51.166;4.474;2024-03-02T05:58:38;5.00;99.90
25933;DHT22;13731;51.166;4.474;2024-03-02T06:01:26;5.00;99.90
25933;DHT22;13731;51.166;4.474;2024-03-02T06:03:56;4.90;99.90
25933;DHT22;13731;51.166;4.474;2024-03-02T06:06:22;4.90;99.90
25933;DHT22;13731;51.166;4.474;2024-03-02T06:08:48;4.90;99.90
25933;DHT22;13731;51.166;4.474;2024-03-02T06:11:14;4.90;99.90
25933;DHT22;13731;51.166;4.474;2024-03-02T06:13:39;4.90;99.90
25933;DHT22;13731;51.166;4.474;2024-03-02T06:16:05;4.90;99.90
25933;DHT22;13731;51.166;4.474;2024-03-02T06:18:32;4.80;99.90
25933;DHT22;13731;51.166;4.474;2024-03-02T06:20:58;4.80;99.90
25933;DHT22;13731;51.166;4.474;2024-03-02T06:23:24;4.80;99.90
25933;DHT22;13731;51.166;4.474;2024-03-02T06:25:50;4.80;99.90
25933;DHT22;13731;51.166;4.474;2024-03-02T06:28:15;4.80;99.90
25933;DHT22;13731;51.166;4.474;2024-03-02T06:30:41;4.80;99.90
25933;DHT22;13731;51.166;4.474;2024-03-02T06:33:09;4.80;99.90
25933;DHT22;13731;51.166;4.474;2024-03-02T06:35:34;4.80;99.90
25933;DHT22;13731;51.166;4.474;2024-03-02T06:38:01;4.70;99.90
25933;DHT22;13731;51.166;4.474;2024-03-02T06:40:26;4.70;99.90
25933;DHT22;13731;51.166;4.474;2024-03-02T06:42:52;4.70;99.90
25933;DHT22;13731;51.166;4.474;2024-03-02T06:45:18;4.70;99.90
25933;DHT22;13731;51.166;4.474;2024-03-02T06:47:43;4.70;99.90
25933;DHT22;13731;51.166;4.474;2024-03-02T06:50:09;4.80;99.90
25933;DHT22;13731;51.166;4.474;2024-03-02T06:52:35;4.80;99.90
25933;DHT22;13731;51.166;4.474;2024-03-02T06:55:01;4.70;99.90
25933;DHT22;13731;51.166;4.474;2024-03-02T06:57:27;4.70;99.90
25933;DHT22;13731;51.166;4.474;2024-03-02T06:59:52;4.80;99.90
25933;DHT22;13731;51.166;4.474;2024-03-02T07:02:20;4.80;99.90
25933;DHT22;13731;51.166;4.474;2024-03-02T07:04:46;4.80;99.90
25933;DHT22;13731;51.166;4.474;2024-03-02T07:07:12;4.80;99.90
25933;DHT22;13731;51.166;4.474;2024-03-02T07:09:38;4.80;99.90
25933;DHT22;13731;51.166;4.474;2024-03-02T07:12:04;4.80;99.90
25933;DHT22;13731;51.166;4.474;2024-03-02T07:14:29;4.90;99.90
25933;DHT22;13731;51.166;4.474;2024-03-02T07:17:14;4.90;99.90
25933;DHT22;13731;51.166;4.474;2024-03-02T07:19:39;4.90;99.90
25933;DHT22;13731;51.166;4.474;2024-03-02T07:22:06;5.00;99.90
25933;DHT22;13731;51.166;4.474;2024-03-02T07:24:31;5.00;99.90
25933;DHT22;13731;51.166;4.474;2024-03-02T07:26:57;5.00;99.90
25933;DHT22;13731;51.166;4.474;2024-03-02T07:29:23;5.10;99.90
25933;DHT22;13731;51.166;4.474;2024-03-02T07:31:48;5.10;99.90
25933;DHT22;13731;51.166;4.474;2024-03-02T07:34:14;5.20;99.90
25933;DHT22;13731;51.166;4.474;2024-03-02T07:36:40;5.20;99.90
25933;DHT22;13731;51.166;4.474;2024-03-02T07:39:05;5.40;99.90
25933;DHT22;13731;51.166;4.474;2024-03-02T07:41:32;5.40;99.90
25933;DHT22;13731;51.166;4.474;2024-03-02T07:43:58;5.40;99.90
25933;DHT22;13731;51.166;4.474;2024-03-02T07:46:24;5.50;99.90
25933;DHT22;13731;51.166;4.474;2024-03-02T07:48:50;5.60;99.90
25933;DHT22;13731;51.166;4.474;2024-03-02T07:51:17;5.60;99.90
25933;DHT22;13731;51.166;4.474;2024-03-02T07:53:42;5.70;99.90
25933;DHT22;13731;51.166;4.474;2024-03-02T07:56:08;5.80;99.90
25933;DHT22;13731;51.166;4.474;2024-03-02T07:58:34;5.80;99.90
25933;DHT22;13731;51.166;4.474;2024-03-02T08:01:00;5.90;99.90
25933;DHT22;13731;51.166;4.474;2024-03-02T08:03:26;6.00;99.90
25933;DHT22;13731;51.166;4.474;2024-03-02T08:05:52;6.10;99.90
25933;DHT22;13731;51.166;4.474;2024-03-02T08:08:18;6.20;99.90
25933;DHT22;13731;51.166;4.474;2024-03-02T08:10:44;6.30;99.90
25933;DHT22;13731;51.166;4.474;2024-03-02T08:13:09;6.50;99.90
25933;DHT22;13731;51.166;4.474;2024-03-02T08:15:35;6.60;99.90
25933;DHT22;13731;51.166;4.474;2024-03-02T08:18:01;6.60;99.90
25933;DHT22;13731;51.166;4.474;2024-03-02T08:20:26;6.60;1.00
25933;DHT22;13731;51.166;4.474;2024-03-02T08:22:52;6.60;99.90
25933;DHT22;13731;51.166;4.474;2024-03-02T08:25:20;6.70;1.00
25933;DHT22;13731;51.166;4.474;2024-03-02T08:27:46;6.80;99.90
25933;DHT22;13731;51.166;4.474;2024-03-02T08:30:12;6.90;1.00
25933;DHT22;13731;51.166;4.474;2024-03-02T08:32:38;6.90;1.00
25933;DHT22;13731;51.166;4.474;2024-03-02T08:35:04;7.00;1.00
25933;DHT22;13731;51.166;4.474;2024-03-02T08:37:30;7.10;1.00
25933;DHT22;13731;51.166;4.474;2024-03-02T08:39:56;7.20;99.90
25933;DHT22;13731;51.166;4.474;2024-03-02T08:42:22;7.30;1.00
25933;DHT22;13731;51.166;4.474;2024-03-02T08:44:47;7.40;99.90
25933;DHT22;13731;51.166;4.474;2024-03-02T08:47:13;7.50;99.90
25933;DHT22;13731;51.166;4.474;2024-03-02T08:49:39;7.60;99.90
25933;DHT22;13731;51.166;4.474;2024-03-02T08:52:05;7.60;1.00
25933;DHT22;13731;51.166;4.474;2024-03-02T08:54:30;7.60;99.90
25933;DHT22;13731;51.166;4.474;2024-03-02T08:56:56;7.70;99.90
25933;DHT22;13731;51.166;4.474;2024-03-02T08:59:22;7.80;1.00
25933;DHT22;13731;51.166;4.474;2024-03-02T09:01:48;7.90;1.00
25933;DHT22;13731;51.166;4.474;2024-03-02T09:04:14;8.00;7.20
25933;DHT22;13731;51.166;4.474;2024-03-02T09:06:39;8.10;99.90
25933;DHT22;13731;51.166;4.474;2024-03-02T09:09:05;8.20;1.00
25933;DHT22;13731;51.166;4.474;2024-03-02T09:11:32;8.40;99.90
25933;DHT22;13731;51.166;4.474;2024-03-02T09:13:58;8.40;79.30
25933;DHT22;13731;51.166;4.474;2024-03-02T09:16:23;8.40;36.30
25933;DHT22;13731;51.166;4.474;2024-03-02T09:18:49;8.50;10.10
25933;DHT22;13731;51.166;4.474;2024-03-02T09:21:15;8.60;1.00
25933;DHT22;13731;51.166;4.474;2024-03-02T09:23:41;8.80;1.00
25933;DHT22;13731;51.166;4.474;2024-03-02T09:26:07;8.90;1.00
25933;DHT22;13731;51.166;4.474;2024-03-02T09:28:32;8.90;1.00
25933;DHT22;13731;51.166;4.474;2024-03-02T09:30:58;8.90;1.00
25933;DHT22;13731;51.166;4.474;2024-03-02T09:33:26;8.90;1.00
25933;DHT22;13731;51.166;4.474;2024-03-02T09:35:51;8.90;1.00
25933;DHT22;13731;51.166;4.474;2024-03-02T09:38:17;9.00;1.00
25933;DHT22;13731;51.166;4.474;2024-03-02T09:40:43;9.20;1.00
25933;DHT22;13731;51.166;4.474;2024-03-02T09:43:09;9.30;1.00
25933;DHT22;13731;51.166;4.474;2024-03-02T09:45:35;9.40;1.00
25933;DHT22;13731;51.166;4.474;2024-03-02T09:48:01;9.30;99.90
25933;DHT22;13731;51.166;4.474;2024-03-02T09:50:27;9.30;99.90
25933;DHT22;13731;51.166;4.474;2024-03-02T09:52:53;9.30;99.90
25933;DHT22;13731;51.166;4.474;2024-03-02T09:55:19;9.40;99.90
25933;DHT22;13731;51.166;4.474;2024-03-02T09:57:46;9.60;99.90
25933;DHT22;13731;51.166;4.474;2024-03-02T10:00:14;9.70;99.90
25933;DHT22;13731;51.166;4.474;2024-03-02T10:02:40;9.60;99.90
25933;DHT22;13731;51.166;4.474;2024-03-02T10:05:07;9.60;99.90
25933;DHT22;13731;51.166;4.474;2024-03-02T10:07:33;9.70;99.90
25933;DHT22;13731;51.166;4.474;2024-03-02T10:09:58;9.70;99.90
25933;DHT22;13731;51.166;4.474;2024-03-02T10:12:37;9.80;99.90
25933;DHT22;13731;51.166;4.474;2024-03-02T10:15:03;9.90;99.90
25933;DHT22;13731;51.166;4.474;2024-03-02T10:17:30;10.10;99.90
25933;DHT22;13731;51.166;4.474;2024-03-02T10:19:56;10.40;99.90
25933;DHT22;13731;51.166;4.474;2024-03-02T10:22:22;10.50;99.90
25933;DHT22;13731;51.166;4.474;2024-03-02T10:24:49;10.60;99.90
25933;DHT22;13731;51.166;4.474;2024-03-02T10:29:40;10.80;99.90
25933;DHT22;13731;51.166;4.474;2024-03-02T10:32:08;10.90;99.90
25933;DHT22;13731;51.166;4.474;2024-03-02T10:34:34;11.10;99.90
25933;DHT22;13731;51.166;4.474;2024-03-02T10:37:01;12.40;99.90
25933;DHT22;13731;51.166;4.474;2024-03-02T10:39:27;13.80;99.90
25933;DHT22;13731;51.166;4.474;2024-03-02T10:41:53;14.40;99.90
25933;DHT22;13731;51.166;4.474;2024-03-02T10:44:20;14.90;99.90
25933;DHT22;13731;51.166;4.474;2024-03-02T10:46:47;14.70;99.90
25933;DHT22;13731;51.166;4.474;2024-03-02T10:49:14;15.20;93.80
25933;DHT22;13731;51.166;4.474;2024-03-02T10:51:40;15.20;73.00
25933;DHT22;13731;51.166;4.474;2024-03-02T10:54:07;15.00;73.40
25933;DHT22;13731;51.166;4.474;2024-03-02T10:56:38;15.80;62.90
25933;DHT22;13731;51.166;4.474;2024-03-02T10:59:17;14.50;58.90
25933;DHT22;13731;51.166;4.474;2024-03-02T11:01:47;14.20;62.00
25933;DHT22;13731;51.166;4.474;2024-03-02T11:04:15;13.80;56.20
25933;DHT22;13731;51.166;4.474;2024-03-02T11:06:49;14.00;61.80
25933;DHT22;13731;51.166;4.474;2024-03-02T11:09:15;14.10;62.30
25933;DHT22;13731;51.166;4.474;2024-03-02T11:11:42;15.00;59.00
25933;DHT22;13731;51.166;4.474;2024-03-02T11:14:10;14.60;56.80
25933;DHT22;13731;51.166;4.474;2024-03-02T11:16:38;15.00;53.90
25933;DHT22;13731;51.166;4.474;2024-03-02T11:19:15;15.10;49.20
25933;DHT22;13731;51.166;4.474;2024-03-02T11:21:41;14.70;51.30
25933;DHT22;13731;51.166;4.474;2024-03-02T11:27:04;14.00;54.90
25933;DHT22;13731;51.166;4.474;2024-03-02T11:32:02;13.80;51.90
25933;DHT22;13731;51.166;4.474;2024-03-02T11:34:32;13.70;54.00
25933;DHT22;13731;51.166;4.474;2024-03-02T11:36:59;13.30;54.20
25933;DHT22;13731;51.166;4.474;2024-03-02T11:39:27;13.80;52.20
25933;DHT22;13731;51.166;4.474;2024-03-02T11:41:53;13.20;68.00
25933;DHT22;13731;51.166;4.474;2024-03-02T11:44:19;13.40;56.90
25933;DHT22;13731;51.166;4.474;2024-03-02T11:46:45;14.10;48.40
25933;DHT22;13731;51.166;4.474;2024-03-02T11:49:14;14.10;50.50
25933;DHT22;13731;51.166;4.474;2024-03-02T11:51:50;13.70;48.40
25933;DHT22;13731;51.166;4.474;2024-03-02T11:54:18;12.90;49.20
25933;DHT22;13731;51.166;4.474;2024-03-02T11:56:44;12.80;55.50
25933;DHT22;13731;51.166;4.474;2024-03-02T11:59:11;13.20;54.80
25933;DHT22;13731;51.166;4.474;2024-03-02T12:01:37;13.20;56.80
25933;DHT22;13731;51.166;4.474;2024-03-02T12:04:03;13.30;56.40
25933;DHT22;13731;51.166;4.474;2024-03-02T12:06:30;13.70;55.70
25933;DHT22;13731;51.166;4.474;2024-03-02T12:08:56;14.00;51.40
25933;DHT22;13731;51.166;4.474;2024-03-02T12:11:21;14.30;50.60
25933;DHT22;13731;51.166;4.474;2024-03-02T12:13:53;15.40;45.10
25933;DHT22;13731;51.166;4.474;2024-03-02T12:16:26;16.30;44.80
25933;DHT22;13731;51.166;4.474;2024-03-02T12:18:52;17.00;39.70
25933;DHT22;13731;51.166;4.474;2024-03-02T12:21:17;18.50;27.90
25933;DHT22;13731;51.166;4.474;2024-03-02T12:23:43;19.90;25.20
25933;DHT22;13731;51.166;4.474;2024-03-02T12:26:09;20.00;18.80
25933;DHT22;13731;51.166;4.474;2024-03-02T12:28:35;20.10;11.60
25933;DHT22;13731;51.166;4.474;2024-03-02T12:31:01;20.50;9.90
25933;DHT22;13731;51.166;4.474;2024-03-02T12:33:26;20.00;6.50
25933;DHT22;13731;51.166;4.474;2024-03-02T12:35:52;19.20;7.30
25933;DHT22;13731;51.166;4.474;2024-03-02T12:38:18;17.50;3.90
25933;DHT22;13731;51.166;4.474;2024-03-02T12:40:47;16.30;6.90
25933;DHT22;13731;51.166;4.474;2024-03-02T12:43:13;15.10;9.90
25933;DHT22;13731;51.166;4.474;2024-03-02T12:45:38;14.60;8.20
25933;DHT22;13731;51.166;4.474;2024-03-02T12:48:04;14.60;8.70
25933;DHT22;13731;51.166;4.474;2024-03-02T12:50:30;14.40;12.70
25933;DHT22;13731;51.166;4.474;2024-03-02T12:52:56;14.40;15.30
25933;DHT22;13731;51.166;4.474;2024-03-02T12:55:21;14.10;13.10
25933;DHT22;13731;51.166;4.474;2024-03-02T12:57:49;13.90;20.80
25933;DHT22;13731;51.166;4.474;2024-03-02T13:00:14;14.10;25.30
25933;DHT22;13731;51.166;4.474;2024-03-02T13:02:45;14.40;26.60
25933;DHT22;13731;51.166;4.474;2024-03-02T13:05:11;14.50;23.60
25933;DHT22;13731;51.166;4.474;2024-03-02T13:07:37;14.40;20.00
25933;DHT22;13731;51.166;4.474;2024-03-02T13:10:03;13.80;25.20
25933;DHT22;13731;51.166;4.474;2024-03-02T13:12:29;13.50;28.20
25933;DHT22;13731;51.166;4.474;2024-03-02T13:14:57;13.40;33.30
25933;DHT22;13731;51.166;4.474;2024-03-02T13:17:23;13.60;33.90
25933;DHT22;13731;51.166;4.474;2024-03-02T13:19:52;13.90;28.40
25933;DHT22;13731;51.166;4.474;2024-03-02T13:22:18;14.10;34.30
25933;DHT22;13731;51.166;4.474;2024-03-02T13:24:44;14.20;28.00
25933;DHT22;13731;51.166;4.474;2024-03-02T13:27:10;14.10;24.20
25933;DHT22;13731;51.166;4.474;2024-03-02T13:29:35;13.90;25.50
25933;DHT22;13731;51.166;4.474;2024-03-02T13:32:01;14.30;24.10
25933;DHT22;13731;51.166;4.474;2024-03-02T13:34:27;14.40;14.80
25933;DHT22;13731;51.166;4.474;2024-03-02T13:36:52;14.30;25.00
25933;DHT22;13731;51.166;4.474;2024-03-02T13:39:18;14.10;22.60
25933;DHT22;13731;51.166;4.474;2024-03-02T13:41:44;13.80;26.40
25933;DHT22;13731;51.166;4.474;2024-03-02T13:44:17;14.00;31.70
25933;DHT22;13731;51.166;4.474;2024-03-02T13:46:43;13.80;31.90
25933;DHT22;13731;51.166;4.474;2024-03-02T13:49:11;13.80;34.60
25933;DHT22;13731;51.166;4.474;2024-03-02T13:51:37;13.40;37.30
25933;DHT22;13731;51.166;4.474;2024-03-02T13:54:02;13.10;41.10
25933;DHT22;13731;51.166;4.474;2024-03-02T13:56:29;13.00;45.50
25933;DHT22;13731;51.166;4.474;2024-03-02T13:58:55;13.30;52.90
25933;DHT22;13731;51.166;4.474;2024-03-02T14:01:20;13.10;49.20
25933;DHT22;13731;51.166;4.474;2024-03-02T14:03:46;13.00;48.90
25933;DHT22;13731;51.166;4.474;2024-03-02T14:06:12;13.10;56.60
25933;DHT22;13731;51.166;4.474;2024-03-02T14:08:38;13.30;59.40
25933;DHT22;13731;51.166;4.474;2024-03-02T14:11:03;13.60;54.50
25933;DHT22;13731;51.166;4.474;2024-03-02T14:13:29;13.80;52.60
25933;DHT22;13731;51.166;4.474;2024-03-02T14:15:55;13.70;51.50
25933;DHT22;13731;51.166;4.474;2024-03-02T14:18:20;14.10;51.10
25933;DHT22;13731;51.166;4.474;2024-03-02T14:20:46;13.90;54.20
25933;DHT22;13731;51.166;4.474;2024-03-02T14:23:18;14.00;55.40
25933;DHT22;13731;51.166;4.474;2024-03-02T14:25:44;14.00;59.10
25933;DHT22;13731;51.166;4.474;2024-03-02T14:28:10;13.70;58.70
25933;DHT22;13731;51.166;4.474;2024-03-02T14:30:37;13.70;62.20
25933;DHT22;13731;51.166;4.474;2024-03-02T14:33:03;13.80;51.30
25933;DHT22;13731;51.166;4.474;2024-03-02T14:35:29;13.60;62.30
25933;DHT22;13731;51.166;4.474;2024-03-02T14:37:55;13.60;63.40
25933;DHT22;13731;51.166;4.474;2024-03-02T14:40:22;14.00;72.30
25933;DHT22;13731;51.166;4.474;2024-03-02T14:42:51;14.30;58.90
25933;DHT22;13731;51.166;4.474;2024-03-02T14:45:16;14.50;55.80
25933;DHT22;13731;51.166;4.474;2024-03-02T14:47:42;14.90;50.90
25933;DHT22;13731;51.166;4.474;2024-03-02T14:50:08;14.70;45.90
25933;DHT22;13731;51.166;4.474;2024-03-02T14:52:35;14.80;45.40
25933;DHT22;13731;51.166;4.474;2024-03-02T14:55:01;14.70;48.10
25933;DHT22;13731;51.166;4.474;2024-03-02T14:57:28;14.60;45.90
25933;DHT22;13731;51.166;4.474;2024-03-02T14:59:53;14.40;43.60
25933;DHT22;13731;51.166;4.474;2024-03-02T15:02:20;14.30;44.20
25933;DHT22;13731;51.166;4.474;2024-03-02T15:04:45;13.90;48.70
25933;DHT22;13731;51.166;4.474;2024-03-02T15:07:13;13.70;56.80
25933;DHT22;13731;51.166;4.474;2024-03-02T15:09:39;13.50;63.70
25933;DHT22;13731;51.166;4.474;2024-03-02T15:12:05;13.30;73.10
25933;DHT22;13731;51.166;4.474;2024-03-02T15:14:31;13.30;80.90
25933;DHT22;13731;51.166;4.474;2024-03-02T15:16:57;13.40;92.60
25933;DHT22;13731;51.166;4.474;2024-03-02T15:19:23;13.30;99.90
25933;DHT22;13731;51.166;4.474;2024-03-02T15:21:49;13.10;99.90
25933;DHT22;13731;51.166;4.474;2024-03-02T15:24:15;13.10;99.90
25933;DHT22;13731;51.166;4.474;2024-03-02T15:26:41;13.10;99.90
25933;DHT22;13731;51.166;4.474;2024-03-02T15:29:06;13.20;99.90
25933;DHT22;13731;51.166;4.474;2024-03-02T15:31:32;13.30;99.90
25933;DHT22;13731;51.166;4.474;2024-03-02T15:33:58;13.30;99.90
25933;DHT22;13731;51.166;4.474;2024-03-02T15:36:24;13.10;99.90
25933;DHT22;13731;51.166;4.474;2024-03-02T15:38:50;13.10;99.90
25933;DHT22;13731;51.166;4.474;2024-03-02T15:41:15;13.00;99.90
25933;DHT22;13731;51.166;4.474;2024-03-02T15:43:41;13.10;99.90
25933;DHT22;13731;51.166;4.474;2024-03-02T15:46:08;12.90;99.90
25933;DHT22;13731;51.166;4.474;2024-03-02T15:48:34;12.70;99.90
25933;DHT22;13731;51.166;4.474;2024-03-02T15:51:00;12.50;99.90